createdAt,value
2019-05-29T00:01:37.489Z,100509.38
2019-05-29T00:03:44.564Z,100505.97
2019-05-29T00:05:52.481Z,100509.05
2019-05-29T00:07:58.722Z,100512.49
2019-05-29T00:10:08.980Z,100519.89
2019-05-29T00:12:19.592Z,100518.94
2019-05-29T00:14:27.524Z,100523.79
2019-05-29T00:16:31.643Z,100527.61
2019-05-29T00:18:38.953Z,100523.14
2019-05-29T00:20:47.178Z,100530.77
2019-05-29T00:22:55.232Z,100533.52
2019-05-29T00:25:01.491Z,100531.72
2019-05-29T00:29:13.755Z,100538.37
2019-05-29T00:31:20.314Z,100536.77
2019-05-29T00:33:26.654Z,100541.28
2019-05-29T00:35:34.670Z,100539.18
2019-05-29T00:37:41.016Z,100541.73
2019-05-29T00:39:48.326Z,100543.05
2019-05-29T00:41:54.670Z,100547.97
2019-05-29T00:44:01.940Z,100544.65
2019-05-29T00:46:09.106Z,100547.92
2019-05-29T00:48:17.846Z,100549.28
2019-05-29T00:50:24.305Z,100552.70
2019-05-29T00:52:30.683Z,100547.55
2019-05-29T00:54:36.950Z,100555.30
2019-05-29T00:56:43.326Z,100557.97
2019-05-29T00:58:49.678Z,100562.32
2019-05-29T01:00:58.057Z,100557.79
2019-05-29T01:03:06.306Z,100568.00
2019-05-29T01:05:13.862Z,100571.34
2019-05-29T01:07:21.566Z,100569.01
2019-05-29T01:09:28.338Z,100565.11
2019-05-29T01:11:35.862Z,100572.87
2019-05-29T01:13:42.517Z,100568.77
2019-05-29T01:15:49.346Z,100572.87
2019-05-29T01:17:56.179Z,100568.83
2019-05-29T01:20:05.194Z,100573.74
2019-05-29T01:22:12.272Z,100577.80
2019-05-29T01:24:20.617Z,100588.05
2019-05-29T01:26:28.194Z,100589.17
2019-05-29T01:28:35.105Z,100594.84
2019-05-29T01:30:41.829Z,100597.88
2019-05-29T01:32:48.654Z,100600.13
2019-05-29T01:34:55.445Z,100601.19
2019-05-29T01:37:02.258Z,100603.99
2019-05-29T01:39:15.129Z,100607.56
2019-05-29T01:41:22.129Z,100603.13
2019-05-29T01:43:28.950Z,100610.75
2019-05-29T01:45:37.237Z,100611.38
2019-05-29T01:47:46.140Z,100613.55
2019-05-29T01:49:56.301Z,100616.84
2019-05-29T01:52:05.098Z,100614.89
2019-05-29T01:54:11.530Z,100620.14
2019-05-29T01:56:21.912Z,100616.63
2019-05-29T01:58:28.606Z,100615.80
2019-05-29T02:00:35.407Z,100619.39
2019-05-29T02:02:43.706Z,100616.25
2019-05-29T02:04:53.286Z,100622.36
2019-05-29T02:07:01.578Z,100628.78
2019-05-29T02:09:09.059Z,100627.92
2019-05-29T02:11:17.171Z,100632.41
2019-05-29T02:13:23.873Z,100631.96
2019-05-29T02:15:33.947Z,100631.89
2019-05-29T02:17:40.653Z,100636.00
2019-05-29T02:19:48.733Z,100638.01
2019-05-29T02:21:55.503Z,100637.66
2019-05-29T02:24:02.278Z,100638.75
2019-05-29T02:26:10.173Z,100646.59
2019-05-29T02:28:20.505Z,100644.28
2019-05-29T02:30:30.274Z,100650.53
2019-05-29T02:32:34.970Z,100652.73
2019-05-29T02:34:41.500Z,100650.63
2019-05-29T02:36:48.285Z,100654.15
2019-05-29T02:38:54.993Z,100655.01
2019-05-29T02:41:01.578Z,100656.22
2019-05-29T02:43:08.624Z,100659.30
2019-05-29T02:45:17.138Z,100659.91
2019-05-29T02:47:23.651Z,100669.95
2019-05-29T02:49:30.575Z,100673.89
2019-05-29T02:51:38.105Z,100676.09
2019-05-29T02:53:44.462Z,100684.29
2019-05-29T02:55:51.180Z,100685.13
2019-05-29T02:57:59.347Z,100686.91
2019-05-29T03:00:09.282Z,100692.35
2019-05-29T03:02:15.642Z,100684.90
2019-05-29T03:04:24.071Z,100689.56
2019-05-29T03:06:32.433Z,100693.86
2019-05-29T03:08:40.763Z,100693.98
2019-05-29T03:10:48.105Z,100700.16
2019-05-29T03:12:54.719Z,100699.81
2019-05-29T03:15:01.607Z,100700.25
2019-05-29T03:17:10.782Z,100699.55
2019-05-29T03:19:18.420Z,100704.80
2019-05-29T03:21:26.044Z,100712.92
2019-05-29T03:23:35.177Z,100718.63
2019-05-29T03:25:41.054Z,100720.53
2019-05-29T03:27:49.615Z,100723.74
2019-05-29T03:29:56.298Z,100730.66
2019-05-29T03:32:04.146Z,100736.61
2019-05-29T03:34:10.858Z,100737.40
2019-05-29T03:36:17.500Z,100739.09
2019-05-29T03:38:23.850Z,100747.73
2019-05-29T03:40:32.821Z,100749.08
2019-05-29T03:42:40.382Z,100756.43
2019-05-29T03:44:48.952Z,100760.30
2019-05-29T03:46:57.689Z,100756.91
2019-05-29T03:49:04.592Z,100770.47
2019-05-29T03:51:11.239Z,100766.72
2019-05-29T03:53:18.457Z,100775.93
2019-05-29T03:55:27.303Z,100782.81
2019-05-29T03:57:35.942Z,100791.54
2019-05-29T03:59:44.507Z,100793.22
2019-05-29T04:01:51.003Z,100792.09
2019-05-29T04:03:59.673Z,100800.58
2019-05-29T04:06:07.850Z,100807.22
2019-05-29T04:08:14.462Z,100804.58
2019-05-29T04:10:34.183Z,100805.59
2019-05-29T04:12:38.923Z,100810.89
2019-05-29T04:14:50.068Z,100816.91
2019-05-29T04:17:00.291Z,100832.63
2019-05-29T04:19:07.329Z,100832.66
2019-05-29T04:21:16.623Z,100839.84
2019-05-29T04:23:27.824Z,100832.80
2019-05-29T04:25:41.744Z,100845.18
2019-05-29T04:27:48.710Z,100847.78
2019-05-29T04:30:00.699Z,100849.98
2019-05-29T04:32:08.180Z,100854.78
2019-05-29T04:34:14.975Z,100857.37
2019-05-29T04:36:22.588Z,100863.48
2019-05-29T04:38:33.870Z,100873.48
2019-05-29T04:40:42.236Z,100879.41
2019-05-29T04:42:51.968Z,100878.23
2019-05-29T04:44:58.491Z,100880.04
2019-05-29T04:47:10.791Z,100882.95
2019-05-29T04:49:13.048Z,100885.05
2019-05-29T04:51:19.428Z,100887.78
2019-05-29T04:53:29.258Z,100885.25
2019-05-29T04:55:37.014Z,100891.85
2019-05-29T04:57:44.996Z,100894.34
2019-05-29T04:59:53.165Z,100899.11
2019-05-29T05:02:00.408Z,100902.70
2019-05-29T05:04:07.250Z,100900.91
2019-05-29T05:06:13.841Z,100908.92
2019-05-29T05:08:22.152Z,100915.08
2019-05-29T05:10:42.471Z,100916.91
2019-05-29T05:12:49.164Z,100927.65
2019-05-29T05:14:56.454Z,100936.94
2019-05-29T05:17:03.222Z,100934.77
2019-05-29T05:19:09.891Z,100940.50
2019-05-29T05:21:17.158Z,100951.17
2019-05-29T05:23:23.803Z,100951.17
2019-05-29T05:25:30.660Z,100956.08
2019-05-29T05:27:38.355Z,100964.12
2019-05-29T05:29:46.233Z,100973.71
2019-05-29T05:31:52.665Z,100978.72
2019-05-29T05:33:59.435Z,100977.91
2019-05-29T05:36:07.081Z,100982.06
2019-05-29T05:38:14.306Z,100984.22
2019-05-29T05:40:22.480Z,100990.27
2019-05-29T05:42:29.205Z,100981.69
2019-05-29T05:44:39.426Z,100982.34
2019-05-29T05:46:46.042Z,100984.62
2019-05-29T05:48:54.666Z,100987.02
2019-05-29T05:51:02.878Z,100995.98
2019-05-29T05:53:09.668Z,100996.11
2019-05-29T05:55:17.200Z,100995.95
2019-05-29T05:57:23.720Z,100998.64
2019-05-29T05:59:30.101Z,100995.41
2019-05-29T06:01:37.917Z,101002.48
2019-05-29T06:03:44.701Z,100999.65
2019-05-29T06:05:51.504Z,100999.63
2019-05-29T06:07:59.286Z,101006.08
2019-05-29T06:10:08.770Z,101001.14
2019-05-29T06:12:15.765Z,101015.60
2019-05-29T06:14:22.362Z,101014.23
2019-05-29T06:16:29.332Z,101010.17
2019-05-29T06:18:36.556Z,101016.86
2019-05-29T06:20:45.275Z,101018.24
2019-05-29T06:22:53.548Z,101032.84
2019-05-29T06:25:00.436Z,101036.35
2019-05-29T06:27:08.360Z,101039.60
2019-05-29T06:29:15.022Z,101037.08
2019-05-29T06:31:21.597Z,101038.66
2019-05-29T06:33:28.359Z,101039.64
2019-05-29T06:35:35.834Z,101043.13
2019-05-29T06:37:43.771Z,101042.16
2019-05-29T06:39:50.449Z,101045.20
2019-05-29T06:41:57.640Z,101043.44
2019-05-29T06:44:04.487Z,101047.41
2019-05-29T06:46:11.052Z,101044.44
2019-05-29T06:48:59.008Z,101052.98
2019-05-29T06:50:39.300Z,101052.12
2019-05-29T06:52:46.183Z,101050.80
2019-05-29T06:54:53.195Z,101055.54
2019-05-29T06:56:59.502Z,101055.30
2019-05-29T06:59:06.268Z,101056.23
2019-05-29T07:01:12.979Z,101067.25
2019-05-29T07:03:19.438Z,101067.25
2019-05-29T07:05:26.270Z,101067.45
2019-05-29T07:07:33.375Z,101079.27
2019-05-29T07:09:41.067Z,101078.52
2019-05-29T07:11:50.157Z,101084.37
2019-05-29T07:13:56.737Z,101085.31
2019-05-29T07:16:03.707Z,101099.06
2019-05-29T07:18:11.314Z,101094.75
2019-05-29T07:20:18.004Z,101096.07
2019-05-29T07:22:24.511Z,101105.55
2019-05-29T07:24:31.257Z,101108.58
2019-05-29T07:26:38.902Z,101107.87
2019-05-29T07:29:03.038Z,101105.30
2019-05-29T07:31:01.952Z,101111.53
2019-05-29T07:33:02.666Z,101110.24
2019-05-29T07:35:09.761Z,101109.84
2019-05-29T07:37:19.871Z,101110.75
2019-05-29T07:39:26.498Z,101113.52
2019-05-29T07:41:33.114Z,101129.59
2019-05-29T07:43:40.113Z,101127.03
2019-05-29T07:45:48.245Z,101119.56
2019-05-29T07:47:56.813Z,101142.47
2019-05-29T07:50:03.503Z,101137.97
2019-05-29T07:52:11.752Z,101142.13
2019-05-29T07:54:19.307Z,101145.63
2019-05-29T07:56:26.057Z,101140.43
2019-05-29T07:58:32.823Z,101146.45
2019-05-29T08:01:02.656Z,101146.53
2019-05-29T08:02:47.762Z,101151.69
2019-05-29T08:04:54.791Z,101161.66
2019-05-29T08:07:01.630Z,101156.22
2019-05-29T08:09:09.649Z,101166.33
2019-05-29T08:11:16.227Z,101181.70
2019-05-29T08:13:22.969Z,101182.89
2019-05-29T08:15:29.620Z,101181.55
2019-05-29T08:17:39.854Z,101193.37
2019-05-29T08:20:02.654Z,101179.82
2019-05-29T08:21:58.524Z,101188.86
2019-05-29T08:24:05.275Z,101180.04
2019-05-29T08:26:12.068Z,101185.98
2019-05-29T08:28:18.821Z,101186.98
2019-05-29T08:30:26.573Z,101182.66
2019-05-29T08:32:34.024Z,101187.61
2019-05-29T08:34:42.996Z,101190.24
2019-05-29T08:37:04.781Z,101190.69
2019-05-29T08:38:59.899Z,101198.78
2019-05-29T08:41:12.575Z,101187.98
2019-05-29T08:43:29.647Z,101197.34
2019-05-29T08:45:38.897Z,101192.09
2019-05-29T08:47:46.057Z,101194.43
2019-05-29T08:49:54.779Z,101198.00
2019-05-29T08:52:11.995Z,101201.98
2019-05-29T08:54:23.422Z,101207.88
2019-05-29T08:56:19.821Z,101206.83
2019-05-29T08:58:27.804Z,101208.47
2019-05-29T09:00:34.908Z,101214.22
2019-05-29T09:02:42.600Z,101210.52
2019-05-29T09:04:52.984Z,101218.41
2019-05-29T09:06:59.012Z,101222.24
2019-05-29T09:09:07.639Z,101217.91
2019-05-29T09:11:15.503Z,101220.77
2019-05-29T09:13:22.603Z,101216.41
2019-05-29T09:15:30.586Z,101227.49
2019-05-29T09:17:38.968Z,101234.20
2019-05-29T09:19:46.483Z,101230.98
2019-05-29T09:21:53.448Z,101233.42
2019-05-29T09:24:00.101Z,101233.28
2019-05-29T09:26:15.931Z,101234.03
2019-05-29T09:28:19.978Z,101229.05
2019-05-29T09:30:26.316Z,101211.38
2019-05-29T09:32:49.416Z,101234.78
2019-05-29T09:34:41.883Z,101240.63
2019-05-29T09:36:48.540Z,101235.81
2019-05-29T09:38:55.538Z,101229.84
2019-05-29T09:41:02.893Z,101235.81
2019-05-29T09:43:09.449Z,101236.91
2019-05-29T09:45:17.896Z,101242.59
2019-05-29T09:47:26.255Z,101251.80
2019-05-29T09:49:33.638Z,101245.45
2019-05-29T09:51:40.387Z,101249.46
2019-05-29T09:53:47.428Z,101255.60
2019-05-29T09:55:57.003Z,101257.00
2019-05-29T09:58:03.511Z,101259.06
2019-05-29T10:00:12.437Z,101248.25
2019-05-29T10:02:19.472Z,101260.23
2019-05-29T10:04:26.118Z,101253.39
2019-05-29T10:06:34.414Z,101256.35
2019-05-29T10:08:41.379Z,101268.50
2019-05-29T10:10:48.189Z,101264.53
2019-05-29T10:12:55.248Z,101263.44
2019-05-29T10:15:02.906Z,101267.32
2019-05-29T10:17:12.782Z,101267.94
2019-05-29T10:19:18.138Z,101265.30
2019-05-29T10:21:39.116Z,101267.03
2019-05-29T10:23:34.235Z,101265.80
2019-05-29T10:25:41.221Z,101273.13
2019-05-29T10:27:47.873Z,101275.88
2019-05-29T10:29:54.563Z,101285.72
2019-05-29T10:32:01.604Z,101287.60
2019-05-29T10:34:09.337Z,101287.66
2019-05-29T10:36:16.221Z,101299.39
2019-05-29T10:38:23.346Z,101296.95
2019-05-29T10:40:30.283Z,101297.77
2019-05-29T10:42:37.665Z,101304.09
2019-05-29T10:44:46.901Z,101300.27
2019-05-29T10:46:54.716Z,101292.84
2019-05-29T10:49:04.465Z,101284.16
2019-05-29T10:51:09.630Z,101284.83
2019-05-29T10:53:16.729Z,101287.66
2019-05-29T10:55:24.741Z,101291.72
2019-05-29T10:57:31.390Z,101293.95
2019-05-29T10:59:39.149Z,101295.02
2019-05-29T11:01:46.939Z,101294.70
2019-05-29T11:03:53.924Z,101292.72
2019-05-29T11:06:00.611Z,101297.23
2019-05-29T11:08:07.309Z,101302.27
2019-05-29T11:10:16.506Z,101308.93
2019-05-29T11:12:23.137Z,101312.44
2019-05-29T11:14:31.600Z,101316.94
2019-05-29T11:16:39.847Z,101316.78
2019-05-29T11:18:47.476Z,101317.19
2019-05-29T11:20:58.260Z,101316.42
2019-05-29T11:23:05.531Z,101312.74
2019-05-29T11:25:22.633Z,101314.15
2019-05-29T11:27:20.985Z,101323.78
2019-05-29T11:29:27.507Z,101327.95
2019-05-29T11:31:34.730Z,101327.50
2019-05-29T11:33:41.380Z,101332.20
2019-05-29T11:36:00.822Z,101324.94
2019-05-29T11:37:58.838Z,101333.52
2019-05-29T11:40:08.158Z,101332.14
2019-05-29T11:42:27.031Z,101334.98
2019-05-29T11:44:23.052Z,101330.77
2019-05-29T11:46:30.186Z,101329.95
2019-05-29T11:48:36.853Z,101329.69
2019-05-29T11:50:44.385Z,101333.45
2019-05-29T11:52:52.245Z,101338.52
2019-05-29T11:55:00.070Z,101332.75
2019-05-29T11:57:09.757Z,101351.27
2019-05-29T11:59:16.759Z,101349.30
2019-05-29T12:01:24.263Z,101345.41
2019-05-29T12:03:31.895Z,101354.17
2019-05-29T12:05:40.235Z,101359.78
2019-05-29T12:07:48.117Z,101356.33
2019-05-29T12:09:57.425Z,101353.41
2019-05-29T12:12:03.975Z,101364.34
2019-05-29T12:14:10.970Z,101356.95
2019-05-29T12:16:17.667Z,101349.84
2019-05-29T12:18:25.482Z,101354.19
2019-05-29T12:20:31.947Z,101357.17
2019-05-29T12:22:38.560Z,101367.63
2019-05-29T12:24:45.390Z,101359.89
2019-05-29T12:26:52.443Z,101349.49
2019-05-29T12:29:08.650Z,101353.50
2019-05-29T12:31:08.273Z,101359.55
2019-05-29T12:33:14.942Z,101363.31
2019-05-29T12:35:21.693Z,101351.73
2019-05-29T12:37:48.940Z,101357.37
2019-05-29T12:39:57.443Z,101366.80
2019-05-29T12:42:04.546Z,101365.41
2019-05-29T12:44:11.460Z,101357.84
2019-05-29T12:46:18.360Z,101366.13
2019-05-29T12:48:25.305Z,101371.95
2019-05-29T12:50:34.471Z,101370.26
2019-05-29T12:52:43.024Z,101373.16
2019-05-29T12:54:51.262Z,101365.70
2019-05-29T12:56:59.942Z,101364.52
2019-05-29T12:59:06.919Z,101365.70
2019-05-29T13:01:13.523Z,101371.75
2019-05-29T13:03:20.353Z,101376.98
2019-05-29T13:05:27.885Z,101371.75
2019-05-29T13:07:35.885Z,101372.72
2019-05-29T13:09:45.476Z,101379.59
2019-05-29T13:11:52.355Z,101372.86
2019-05-29T13:14:00.484Z,101380.45
2019-05-29T13:16:07.280Z,101384.74
2019-05-29T13:18:14.093Z,101389.95
2019-05-29T13:20:22.552Z,101377.73
2019-05-29T13:22:29.455Z,101382.64
2019-05-29T13:24:36.193Z,101379.28
2019-05-29T13:26:42.682Z,101377.86
2019-05-29T13:28:49.417Z,101374.38
2019-05-29T13:30:57.701Z,101382.39
2019-05-29T13:33:07.451Z,101381.55
2019-05-29T13:35:15.862Z,101377.13
2019-05-29T13:37:22.757Z,101382.09
2019-05-29T13:39:30.944Z,101375.05
2019-05-29T13:41:37.315Z,101376.02
2019-05-29T13:43:45.979Z,101386.34
2019-05-29T13:45:52.732Z,101383.55
2019-05-29T13:48:01.207Z,101381.80
2019-05-29T13:50:12.952Z,101382.55
2019-05-29T13:52:19.639Z,101384.36
2019-05-29T13:54:26.526Z,101391.86
2019-05-29T13:56:33.503Z,101394.92
2019-05-29T13:58:41.468Z,101388.23
2019-05-29T14:00:48.306Z,101384.91
2019-05-29T14:02:55.033Z,101392.01
2019-05-29T14:05:02.791Z,101386.49
2019-05-29T14:07:09.833Z,101387.53
2019-05-29T14:09:16.275Z,101403.47
2019-05-29T14:11:22.822Z,101403.23
2019-05-29T14:13:29.664Z,101404.62
2019-05-29T14:15:39.852Z,101404.72
2019-05-29T14:17:48.161Z,101400.02
2019-05-29T14:19:55.176Z,101392.07
2019-05-29T14:22:03.577Z,101396.73
2019-05-29T14:24:26.170Z,101401.97
2019-05-29T14:26:20.063Z,101399.47
2019-05-29T14:28:26.788Z,101394.32
2019-05-29T14:30:36.500Z,101398.91
2019-05-29T14:32:43.656Z,101395.66
2019-05-29T14:34:50.357Z,101408.48
2019-05-29T14:36:57.616Z,101412.13
2019-05-29T14:39:05.816Z,101411.03
2019-05-29T14:41:12.544Z,101402.41
2019-05-29T14:43:19.114Z,101404.93
2019-05-29T14:45:26.172Z,101399.06
2019-05-29T14:47:33.016Z,101402.45
2019-05-29T14:49:39.976Z,101406.72
2019-05-29T14:52:08.686Z,101407.53
2019-05-29T14:54:15.822Z,101400.31
2019-05-29T14:56:22.668Z,101410.58
2019-05-29T14:58:29.805Z,101404.03
2019-05-29T15:00:36.507Z,101402.55
2019-05-29T15:02:43.147Z,101402.91
2019-05-29T15:04:49.882Z,101406.37
2019-05-29T15:06:56.619Z,101407.34
2019-05-29T15:09:05.539Z,101413.70
2019-05-29T15:11:12.163Z,101406.05
2019-05-29T15:13:19.157Z,101411.75
2019-05-29T15:15:27.162Z,101419.88
2019-05-29T15:17:33.903Z,101421.61
2019-05-29T15:19:40.555Z,101424.58
2019-05-29T15:21:48.544Z,101429.52
2019-05-29T15:23:55.364Z,101426.67
2019-05-29T15:26:03.311Z,101417.75
2019-05-29T15:28:13.566Z,101423.37
2019-05-29T15:30:23.031Z,101416.77
2019-05-29T15:32:27.526Z,101429.91
2019-05-29T15:34:34.193Z,101433.19
2019-05-29T15:36:41.013Z,101444.19
2019-05-29T15:38:48.157Z,101433.38
2019-05-29T15:40:54.919Z,101438.03
2019-05-29T15:43:01.906Z,101436.23
2019-05-29T15:45:11.854Z,101442.05
2019-05-29T15:47:18.743Z,101436.67
2019-05-29T15:49:25.706Z,101440.99
2019-05-29T15:51:33.803Z,101441.14
2019-05-29T15:53:40.680Z,101441.88
2019-05-29T15:55:47.308Z,101447.53
2019-05-29T15:57:54.162Z,101450.73
2019-05-29T16:00:00.907Z,101451.55
2019-05-29T16:02:09.362Z,101458.38
2019-05-29T16:04:16.310Z,101469.25
2019-05-29T16:06:23.463Z,101463.36
2019-05-29T16:08:29.897Z,101468.09
2019-05-29T16:10:36.578Z,101464.52
2019-05-29T16:12:44.357Z,101459.02
2019-05-29T16:14:52.391Z,101474.05
2019-05-29T16:16:59.297Z,101470.23
2019-05-29T16:19:06.022Z,101474.34
2019-05-29T16:21:12.684Z,101471.92
2019-05-29T16:23:33.241Z,101482.91
2019-05-29T16:25:39.501Z,101479.31
2019-05-29T16:27:36.536Z,101476.27
2019-05-29T16:29:43.280Z,101482.09
2019-05-29T16:31:50.102Z,101477.87
2019-05-29T16:33:57.958Z,101486.27
2019-05-29T16:36:07.229Z,101475.83
2019-05-29T16:38:15.819Z,101487.24
2019-05-29T16:40:24.340Z,101496.16
2019-05-29T16:42:30.985Z,101498.28
2019-05-29T16:44:38.001Z,101505.44
2019-05-29T16:46:46.416Z,101507.39
2019-05-29T16:48:56.080Z,101511.91
2019-05-29T16:51:02.939Z,101501.06
2019-05-29T16:53:12.590Z,101511.07
2019-05-29T16:55:20.921Z,101509.47
2019-05-29T16:57:27.799Z,101514.73
2019-05-29T16:59:34.607Z,101516.25
2019-05-29T17:01:42.029Z,101521.39
2019-05-29T17:03:48.748Z,101520.48
2019-05-29T17:05:55.635Z,101526.83
2019-05-29T17:08:02.367Z,101521.73
2019-05-29T17:10:10.514Z,101522.28
2019-05-29T17:12:18.382Z,101528.92
2019-05-29T17:14:25.253Z,101527.88
2019-05-29T17:16:32.964Z,101537.06
2019-05-29T17:18:39.749Z,101536.91
2019-05-29T17:20:47.736Z,101541.56
2019-05-29T17:22:54.904Z,101537.85
2019-05-29T17:25:03.011Z,101548.27
2019-05-29T17:27:09.888Z,101542.74
2019-05-29T17:29:17.034Z,101540.90
2019-05-29T17:31:25.690Z,101542.48
2019-05-29T17:33:32.861Z,101547.56
2019-05-29T17:35:39.464Z,101554.45
2019-05-29T17:37:46.408Z,101558.14
2019-05-29T17:39:53.251Z,101559.67
2019-05-29T17:42:02.265Z,101569.53
2019-05-29T17:44:09.577Z,101569.91
2019-05-29T17:46:17.313Z,101573.19
2019-05-29T17:48:26.302Z,101579.48
2019-05-29T17:50:33.172Z,101576.75
2019-05-29T17:52:40.208Z,101579.39
2019-05-29T17:54:47.275Z,101581.45
2019-05-29T17:56:54.227Z,101594.93
2019-05-29T17:59:02.115Z,101591.69
2019-05-29T18:01:10.143Z,101593.09
2019-05-29T18:03:18.034Z,101593.70
2019-05-29T18:05:27.163Z,101598.20
2019-05-29T18:07:35.449Z,101603.27
2019-05-29T18:09:43.378Z,101607.39
2019-05-29T18:11:50.363Z,101609.40
2019-05-29T18:13:57.276Z,101609.55
2019-05-29T18:16:04.574Z,101616.27
2019-05-29T18:18:11.291Z,101620.88
2019-05-29T18:20:19.625Z,101623.29
2019-05-29T18:22:27.762Z,101630.05
2019-05-29T18:24:36.097Z,101634.80
2019-05-29T18:26:47.143Z,101638.11
2019-05-29T18:28:56.471Z,101638.25
2019-05-29T18:31:03.964Z,101644.72
2019-05-29T18:33:11.248Z,101656.86
2019-05-29T18:35:19.027Z,101656.99
2019-05-29T18:37:29.052Z,101657.65
2019-05-29T18:39:39.039Z,101660.53
2019-05-29T18:41:51.269Z,101661.70
2019-05-29T18:43:58.816Z,101670.20
2019-05-29T18:46:05.799Z,101675.69
2019-05-29T18:48:14.113Z,101675.43
2019-05-29T18:50:23.494Z,101682.23
2019-05-29T18:52:32.723Z,101679.36
2019-05-29T18:54:39.905Z,101691.00
2019-05-29T18:57:13.105Z,101693.47
2019-05-29T19:01:01.458Z,101697.83
2019-05-29T19:03:08.389Z,101701.13
2019-05-29T19:05:16.346Z,101702.11
2019-05-29T19:07:23.762Z,101701.05
2019-05-29T19:09:32.023Z,101709.68
2019-05-29T19:11:39.636Z,101715.65
2019-05-29T19:13:46.814Z,101718.59
2019-05-29T19:15:55.688Z,101722.73
2019-05-29T19:18:02.557Z,101727.75
2019-05-29T19:20:10.792Z,101731.92
2019-05-29T19:22:18.034Z,101731.25
2019-05-29T19:24:24.927Z,101731.91
2019-05-29T19:26:35.352Z,101736.48
2019-05-29T19:28:41.415Z,101742.83
2019-05-29T19:30:49.053Z,101752.22
2019-05-29T19:32:56.093Z,101752.88
2019-05-29T19:35:03.810Z,101757.86
2019-05-29T19:37:11.712Z,101766.77
2019-05-29T19:39:18.945Z,101766.91
2019-05-29T19:41:26.347Z,101766.13
2019-05-29T19:43:34.470Z,101769.77
2019-05-29T19:45:41.408Z,101781.68
2019-05-29T19:47:50.545Z,101781.32
2019-05-29T19:49:58.278Z,101782.70
2019-05-29T19:52:05.678Z,101782.78
2019-05-29T19:54:13.533Z,101787.73
2019-05-29T19:56:20.102Z,101795.23
2019-05-29T19:58:27.752Z,101792.70
2019-05-29T20:00:34.609Z,101799.80
2019-05-29T20:02:42.151Z,101804.75
2019-05-29T20:04:50.696Z,101800.44
2019-05-29T20:06:57.839Z,101805.37
2019-05-29T20:09:10.197Z,101809.83
2019-05-29T20:11:16.958Z,101814.70
2019-05-29T20:13:24.658Z,101817.46
2019-05-29T20:15:31.935Z,101822.02
2019-05-29T20:17:38.978Z,101831.77
2019-05-29T20:19:51.310Z,101837.08
2019-05-29T20:21:58.416Z,101838.89
2019-05-29T20:24:05.366Z,101843.33
2019-05-29T20:26:12.268Z,101835.59
2019-05-29T20:28:19.537Z,101845.34
2019-05-29T20:30:30.403Z,101845.45
2019-05-29T20:32:38.980Z,101847.73
2019-05-29T20:34:46.317Z,101850.86
2019-05-29T20:36:53.050Z,101848.23
2019-05-29T20:39:00.252Z,101856.15
2019-05-29T20:41:08.807Z,101858.78
2019-05-29T20:43:15.951Z,101860.09
2019-05-29T20:45:22.660Z,101860.14
2019-05-29T20:47:29.872Z,101861.06
2019-05-29T20:49:38.136Z,101872.94
2019-05-29T20:51:45.681Z,101871.70
2019-05-29T20:53:52.785Z,101873.95
2019-05-29T20:55:59.434Z,101875.39
2019-05-29T20:58:23.653Z,101876.35
2019-05-29T21:00:18.918Z,101875.09
2019-05-29T21:02:26.728Z,101880.85
2019-05-29T21:04:34.503Z,101879.15
2019-05-29T21:06:42.698Z,101880.07
2019-05-29T21:08:50.430Z,101882.77
2019-05-29T21:10:57.017Z,101881.97
2019-05-29T21:13:03.970Z,101892.47
2019-05-29T21:15:11.563Z,101886.38
2019-05-29T21:17:18.636Z,101882.89
2019-05-29T21:19:25.382Z,101897.83
2019-05-29T21:21:32.136Z,101895.68
2019-05-29T21:23:40.366Z,101899.25
2019-05-29T21:25:47.589Z,101902.78
2019-05-29T21:27:56.105Z,101906.75
2019-05-29T21:30:05.785Z,101909.41
2019-05-29T21:32:12.732Z,101908.13
2019-05-29T21:34:19.654Z,101910.31
2019-05-29T21:36:28.196Z,101910.78
2019-05-29T21:38:36.036Z,101914.30
2019-05-29T21:40:43.087Z,101927.89
2019-05-29T21:42:49.878Z,101924.48
2019-05-29T21:44:56.591Z,101935.86
2019-05-29T21:47:03.652Z,101934.61
2019-05-29T21:49:10.669Z,101938.59
2019-05-29T21:51:20.089Z,101934.72
2019-05-29T21:53:26.985Z,101932.53
2019-05-29T21:55:33.576Z,101933.84
2019-05-29T21:57:43.949Z,101930.78
2019-05-29T21:59:49.113Z,101934.30
2019-05-29T22:01:57.426Z,101932.14
2019-05-29T22:04:04.157Z,101936.08
2019-05-29T22:06:10.901Z,101929.58
2019-05-29T22:08:19.600Z,101935.71
2019-05-29T22:10:26.846Z,101939.23
2019-05-29T22:12:33.674Z,101939.69
2019-05-29T22:14:40.803Z,101942.32
2019-05-29T22:16:47.565Z,101944.09
2019-05-29T22:18:55.016Z,101946.76
2019-05-29T22:21:02.023Z,101945.46
2019-05-29T22:23:08.814Z,101955.96
2019-05-29T22:25:15.767Z,101955.56
2019-05-29T22:27:22.751Z,101956.42
2019-05-29T22:29:29.437Z,101952.95
2019-05-29T22:31:35.892Z,101954.74
2019-05-29T22:33:42.532Z,101958.67
2019-05-29T22:35:49.271Z,101959.55
2019-05-29T22:37:55.959Z,101959.57
2019-05-29T22:40:02.844Z,101960.88
2019-05-29T22:42:11.080Z,101964.83
2019-05-29T22:44:18.397Z,101960.03
2019-05-29T22:46:25.103Z,101959.62
2019-05-29T22:48:31.880Z,101956.13
2019-05-29T22:50:38.791Z,101960.94
2019-05-29T22:52:45.611Z,101953.54
2019-05-29T22:54:54.314Z,101956.61
2019-05-29T22:57:02.150Z,101954.00
2019-05-29T22:59:09.223Z,101953.13
2019-05-29T23:01:16.066Z,101960.53
2019-05-29T23:03:22.931Z,101965.36
2019-05-29T23:05:31.029Z,101972.33
2019-05-29T23:07:37.938Z,101973.65
2019-05-29T23:09:48.388Z,101969.31
2019-05-29T23:11:56.260Z,101977.17
2019-05-29T23:14:03.042Z,101981.55
2019-05-29T23:16:10.254Z,101981.09
2019-05-29T23:18:17.047Z,101981.55
2019-05-29T23:20:24.159Z,101981.10
2019-05-29T23:22:31.195Z,101991.59
2019-05-29T23:24:37.890Z,101988.53
2019-05-29T23:26:45.709Z,101989.41
2019-05-29T23:28:52.822Z,101989.85
2019-05-29T23:31:01.054Z,101994.62
2019-05-29T23:33:08.130Z,101995.95
2019-05-29T23:35:16.503Z,101994.63
2019-05-29T23:37:23.380Z,101996.37
2019-05-29T23:39:29.974Z,102000.30
2019-05-29T23:41:37.301Z,101999.41
2019-05-29T23:43:44.412Z,101999.84
2019-05-29T23:45:53.279Z,102001.16
2019-05-29T23:48:02.313Z,102002.47
2019-05-29T23:50:10.838Z,102006.39
2019-05-29T23:52:18.122Z,102014.26
2019-05-29T23:54:24.868Z,102013.80
2019-05-29T23:56:31.448Z,102008.13
2019-05-29T23:58:38.175Z,102005.97
